Time;durP1;ratioP1;P1;durP2;ratioP2;P2;SDS_P1;SDS_P2;PMS_P1;PMS_P2;Temp;Humidity;BMP_temperature;BMP_pressure;BME280_temperature;BME280_humidity;BME280_pressure;Samples;Min_cycle;Max_cycle;Signal;HPM_P1;HPM_P2
2022/03/21 00:02:11;;;;;;;34.97;14.40;;;9.10;99.90;;;;;;5026530;28;20040;-55
2022/03/21 00:04:37;;;;;;;34.97;15.57;;;9.10;99.90;;;;;;5026845;28;20033;-54
2022/03/21 00:07:02;;;;;;;36.80;15.63;;;9.10;99.90;;;;;;5027934;28;20029;-55
2022/03/21 00:09:28;;;;;;;38.08;15.27;;;9.10;99.90;;;;;;5027293;28;20037;-54
2022/03/21 00:11:54;;;;;;;33.67;15.60;;;9.00;99.90;;;;;;5026124;28;20053;-54
2022/03/21 00:14:20;;;;;;;32.92;14.90;;;9.00;99.90;;;;;;5028071;28;20022;-55
2022/03/21 00:16:46;;;;;;;31.02;15.20;;;8.80;99.90;;;;;;5027373;28;20037;-55
2022/03/21 00:19:12;;;;;;;29.45;14.57;;;8.90;99.90;;;;;;5026411;28;20018;-53
2022/03/21 00:21:37;;;;;;;26.55;14.75;;;8.90;99.90;;;;;;5023754;28;20164;-54
2022/03/21 00:24:04;;;;;;;25.80;14.68;;;8.80;99.90;;;;;;5026803;28;20040;-55
2022/03/21 00:26:30;;;;;;;32.00;16.15;;;8.90;99.90;;;;;;5028344;28;20834;-56
2022/03/21 00:28:56;;;;;;;36.95;16.58;;;8.90;99.90;;;;;;5027890;28;20097;-56
2022/03/21 00:31:21;;;;;;;36.50;17.48;;;8.90;99.90;;;;;;5025682;28;20045;-57
2022/03/21 00:33:47;;;;;;;39.22;18.27;;;8.80;99.90;;;;;;5025377;28;20037;-57
2022/03/21 00:36:13;;;;;;;39.30;18.30;;;8.80;99.90;;;;;;5028574;28;20026;-56
2022/03/21 00:38:38;;;;;;;41.20;19.02;;;8.70;99.90;;;;;;5026371;28;20545;-56
2022/03/21 00:41:05;;;;;;;32.55;17.50;;;8.60;99.90;;;;;;5027614;28;20030;-57
2022/03/21 00:43:31;;;;;;;39.53;17.98;;;8.70;99.90;;;;;;5027635;28;20078;-54
2022/03/21 00:45:57;;;;;;;39.45;18.20;;;8.50;99.90;;;;;;5025529;28;20411;-57
2022/03/21 00:48:27;;;;;;;36.72;17.40;;;8.30;99.90;;;;;;5027621;28;20033;-56
2022/03/21 00:50:54;;;;;;;33.45;15.77;;;8.30;99.90;;;;;;5026671;28;20390;-56
2022/03/21 00:53:21;;;;;;;36.25;17.98;;;8.40;99.90;;;;;;5028312;28;20033;-57
2022/03/21 00:55:48;;;;;;;31.08;17.38;;;8.40;99.90;;;;;;5025159;28;20037;-55
2022/03/21 00:58:14;;;;;;;37.97;17.52;;;8.50;99.90;;;;;;5028431;28;20033;-55
2022/03/21 01:00:41;;;;;;;35.95;17.63;;;8.50;99.90;;;;;;5028575;28;20037;-53
2022/03/21 01:03:07;;;;;;;38.85;18.00;;;8.40;99.90;;;;;;5031709;28;20029;-55
2022/03/21 01:05:33;;;;;;;37.35;18.90;;;8.30;99.90;;;;;;5012767;28;20028;-56
2022/03/21 01:07:59;;;;;;;39.25;18.08;;;8.30;99.90;;;;;;5027688;28;20491;-55
2022/03/21 01:10:27;;;;;;;34.20;16.48;;;8.30;99.90;;;;;;5029204;28;20037;-57
2022/03/21 01:12:53;;;;;;;34.92;17.40;;;8.40;99.90;;;;;;5030530;28;20018;-57
2022/03/21 01:15:20;;;;;;;39.20;16.13;;;8.40;99.90;;;;;;5028982;28;20490;-57
2022/03/21 01:17:47;;;;;;;38.22;17.83;;;8.30;99.90;;;;;;5025955;28;20514;-56
2022/03/21 01:20:14;;;;;;;38.30;18.55;;;8.20;99.90;;;;;;5030609;28;20029;-57
2022/03/21 01:22:40;;;;;;;32.70;17.90;;;8.10;99.90;;;;;;5024340;28;20037;-56
2022/03/21 01:25:07;;;;;;;38.20;17.77;;;8.00;99.90;;;;;;5029054;28;20017;-56
2022/03/21 01:27:36;;;;;;;32.08;16.00;;;8.00;99.90;;;;;;5029237;28;20047;-57
2022/03/21 01:30:08;;;;;;;36.45;16.65;;;8.00;99.90;;;;;;5030650;28;20113;-55
2022/03/21 01:32:34;;;;;;;39.10;17.85;;;8.00;99.90;;;;;;5012461;28;20801;-57
2022/03/21 01:35:00;;;;;;;35.55;17.35;;;8.00;99.90;;;;;;5029579;28;20077;-56
2022/03/21 01:37:26;;;;;;;33.72;16.95;;;8.00;99.90;;;;;;5030723;28;20021;-56
2022/03/21 01:39:51;;;;;;;39.88;19.80;;;7.90;99.90;;;;;;5028920;28;20030;-57
2022/03/21 01:42:17;;;;;;;37.78;18.60;;;7.90;99.90;;;;;;5012100;28;20022;-51
2022/03/21 01:44:43;;;;;;;34.58;17.73;;;8.00;99.90;;;;;;5025012;28;20048;-57
2022/03/21 01:47:09;;;;;;;46.40;18.15;;;8.00;99.90;;;;;;5029884;28;20029;-55
2022/03/21 01:49:35;;;;;;;35.33;17.77;;;8.00;99.90;;;;;;5029202;28;20033;-56
2022/03/21 01:52:00;;;;;;;39.63;17.10;;;8.00;99.90;;;;;;5029920;28;20060;-56
2022/03/21 01:57:11;;;;;;;36.63;16.77;;;8.00;99.90;;;;;;5030279;28;20479;-55
2022/03/21 01:59:37;;;;;;;38.88;17.02;;;8.00;99.90;;;;;;5029244;28;20030;-54
2022/03/21 02:02:03;;;;;;;36.47;17.65;;;8.00;99.90;;;;;;5030879;28;20052;-57
2022/03/21 02:04:29;;;;;;;39.72;18.17;;;8.00;99.90;;;;;;5029043;28;20112;-55
2022/03/21 02:06:54;;;;;;;36.35;19.13;;;7.90;99.90;;;;;;5031017;28;20136;-57
2022/03/21 02:09:20;;;;;;;34.70;17.52;;;7.80;99.90;;;;;;5044043;22;20068;-60
2022/03/21 02:11:46;;;;;;;37.67;17.70;;;7.80;99.90;;;;;;5029263;28;20047;-57
2022/03/21 02:14:11;;;;;;;37.92;17.80;;;7.80;99.90;;;;;;5028744;28;20037;-59
2022/03/21 02:16:39;;;;;;;41.33;18.80;;;7.90;99.90;;;;;;5029370;28;20480;-56
2022/03/21 02:19:16;;;;;;;33.95;16.52;;;7.90;99.90;;;;;;5028199;28;20026;-57
2022/03/21 02:22:06;;;;;;;33.88;16.83;;;8.00;99.90;;;;;;5027279;28;20033;-58
2022/03/21 02:24:37;;;;;;;33.60;15.70;;;8.00;99.90;;;;;;5028087;28;20030;-60
2022/03/21 02:27:03;;;;;;;33.13;16.80;;;8.00;99.90;;;;;;5030097;28;20442;-60
2022/03/21 02:29:29;;;;;;;37.95;18.67;;;7.90;99.90;;;;;;5026073;28;20549;-57
2022/03/21 02:31:56;;;;;;;38.15;16.38;;;7.80;99.90;;;;;;5029555;28;20087;-57
2022/03/21 02:34:24;;;;;;;37.05;16.92;;;7.80;99.90;;;;;;5028581;28;20124;-60
2022/03/21 02:36:54;;;;;;;38.88;16.85;;;7.80;99.90;;;;;;5028876;28;20029;-57
2022/03/21 02:39:21;;;;;;;34.95;18.00;;;7.70;99.90;;;;;;5028227;28;20021;-60
2022/03/21 02:41:47;;;;;;;37.72;18.13;;;7.60;99.90;;;;;;5029217;28;20029;-57
2022/03/21 02:44:13;;;;;;;33.88;16.85;;;7.50;99.90;;;;;;5026051;28;20033;-60
2022/03/21 02:46:39;;;;;;;37.67;16.27;;;7.40;99.90;;;;;;5029087;28;20025;-59
2022/03/21 02:49:06;;;;;;;41.92;18.67;;;7.30;99.90;;;;;;5029166;28;20112;-58
2022/03/21 02:51:36;;;;;;;38.35;17.90;;;7.30;99.90;;;;;;5028643;28;20048;-59
2022/03/21 02:54:02;;;;;;;45.15;20.05;;;7.20;99.90;;;;;;5027306;28;20021;-60
2022/03/21 02:56:27;;;;;;;34.03;17.95;;;7.10;99.90;;;;;;5028793;28;20020;-60
2022/03/21 02:58:53;;;;;;;37.20;16.38;;;7.10;99.90;;;;;;5026868;28;20487;-61
2022/03/21 03:01:19;;;;;;;38.10;17.38;;;7.10;99.90;;;;;;5028324;28;20311;-57
2022/03/21 03:03:45;;;;;;;37.28;17.85;;;7.10;99.90;;;;;;5028636;28;20424;-58
2022/03/21 03:06:11;;;;;;;36.58;17.15;;;7.00;99.90;;;;;;5026680;28;20087;-59
2022/03/21 03:08:39;;;;;;;39.15;17.98;;;7.00;99.90;;;;;;5027939;28;20033;-57
2022/03/21 03:11:05;;;;;;;43.88;18.42;;;6.90;99.90;;;;;;5027404;28;20372;-61
2022/03/21 03:13:31;;;;;;;42.10;18.70;;;6.90;99.90;;;;;;5025361;28;20040;-60
2022/03/21 03:15:56;;;;;;;41.63;18.20;;;6.80;99.90;;;;;;5027773;28;20029;-60
2022/03/21 03:18:22;;;;;;;32.45;16.75;;;6.80;99.90;;;;;;5027715;28;20024;-57
2022/03/21 03:20:56;;;;;;;44.90;17.95;;;6.80;99.90;;;;;;5028376;28;20041;-62
2022/03/21 03:23:24;;;;;;;34.20;16.50;;;6.80;99.90;;;;;;5025732;28;20052;-63
2022/03/21 03:26:02;;;;;;;40.25;18.88;;;6.80;99.90;;;;;;5024985;28;20206;-59
2022/03/21 03:28:29;;;;;;;42.90;19.05;;;6.80;99.90;;;;;;5027764;28;20029;-60
2022/03/21 03:30:56;;;;;;;43.05;18.55;;;6.70;99.90;;;;;;5026731;28;20057;-58
2022/03/21 03:33:23;;;;;;;38.60;17.67;;;6.70;99.90;;;;;;5007749;28;20030;-63
2022/03/21 03:35:49;;;;;;;42.78;19.15;;;6.80;99.90;;;;;;5024007;28;20025;-60
2022/03/21 03:38:16;;;;;;;36.03;17.55;;;6.80;99.90;;;;;;5028863;28;20029;-60
2022/03/21 03:40:43;;;;;;;38.88;19.98;;;6.70;99.90;;;;;;5028118;28;20029;-57
2022/03/21 03:43:09;;;;;;;37.33;19.05;;;6.70;99.90;;;;;;5026817;28;20495;-61
2022/03/21 03:45:34;;;;;;;35.97;18.05;;;6.70;99.90;;;;;;5025720;28;20056;-60
2022/03/21 03:48:01;;;;;;;35.85;17.90;;;6.70;99.90;;;;;;5021883;28;20033;-55
2022/03/21 03:50:27;;;;;;;36.95;19.42;;;6.70;99.90;;;;;;5028260;28;20017;-61
2022/03/21 03:52:52;;;;;;;38.08;18.02;;;6.80;99.90;;;;;;5027852;28;20382;-59
2022/03/21 03:55:18;;;;;;;38.75;18.13;;;6.80;99.90;;;;;;5027900;28;20072;-56
2022/03/21 03:57:45;;;;;;;40.80;19.02;;;6.90;99.90;;;;;;5026949;28;20052;-59
2022/03/21 04:00:12;;;;;;;41.45;19.52;;;6.80;99.90;;;;;;5028599;28;20043;-58
2022/03/21 04:05:22;;;;;;;44.72;20.45;;;6.90;99.90;;;;;;5024227;28;20103;-60
2022/03/21 04:07:48;;;;;;;38.80;18.63;;;7.00;99.90;;;;;;5026426;28;20065;-61
2022/03/21 04:10:14;;;;;;;41.58;20.13;;;7.00;99.90;;;;;;5027196;28;20100;-60
2022/03/21 04:12:40;;;;;;;44.95;19.92;;;7.00;99.90;;;;;;5024888;28;20508;-58
2022/03/21 04:15:07;;;;;;;41.38;20.25;;;6.90;99.90;;;;;;5026259;28;20095;-58
2022/03/21 04:17:35;;;;;;;42.95;20.13;;;6.80;99.90;;;;;;5026131;28;20104;-60
2022/03/21 04:20:00;;;;;;;43.78;20.55;;;6.70;99.90;;;;;;5025913;28;20037;-60
2022/03/21 04:22:26;;;;;;;44.20;20.92;;;6.70;99.90;;;;;;5026083;28;20026;-58
2022/03/21 04:24:51;;;;;;;39.78;20.33;;;6.80;99.90;;;;;;5028507;28;20026;-59
2022/03/21 04:27:17;;;;;;;39.50;19.98;;;6.80;99.90;;;;;;5026049;28;20030;-58
2022/03/21 04:29:43;;;;;;;45.50;21.52;;;6.70;99.90;;;;;;5027784;28;20057;-58
2022/03/21 04:32:08;;;;;;;45.53;21.20;;;6.70;99.90;;;;;;5027995;28;20092;-60
2022/03/21 04:34:34;;;;;;;40.63;20.70;;;6.60;99.90;;;;;;5032002;28;20088;-59
2022/03/21 04:36:59;;;;;;;46.20;20.67;;;6.60;99.90;;;;;;5034419;28;20034;-56
2022/03/21 04:39:25;;;;;;;42.90;20.88;;;6.60;99.90;;;;;;5030400;28;20094;-57
2022/03/21 04:41:51;;;;;;;46.42;21.00;;;6.50;99.90;;;;;;5027987;28;20033;-60
2022/03/21 04:44:16;;;;;;;42.47;19.85;;;6.40;99.90;;;;;;5031299;28;20500;-63
2022/03/21 04:46:42;;;;;;;39.50;19.25;;;6.30;99.90;;;;;;5031074;28;20038;-57
2022/03/21 04:49:07;;;;;;;43.17;20.08;;;6.30;99.90;;;;;;5031047;28;20033;-57
2022/03/21 04:51:33;;;;;;;42.97;20.30;;;6.40;99.90;;;;;;5031776;28;20041;-60
2022/03/21 04:53:58;;;;;;;43.13;19.13;;;6.30;99.90;;;;;;5030712;28;20120;-56
2022/03/21 04:56:24;;;;;;;41.60;19.00;;;6.40;99.90;;;;;;5027946;28;20108;-57
2022/03/21 04:58:49;;;;;;;38.78;17.92;;;6.30;99.90;;;;;;5029382;28;20031;-60
2022/03/21 05:01:15;;;;;;;40.03;19.65;;;6.40;99.90;;;;;;5029936;28;20021;-57
2022/03/21 05:03:40;;;;;;;43.33;20.10;;;6.40;99.90;;;;;;5029901;28;20450;-59
2022/03/21 05:06:06;;;;;;;40.72;19.35;;;6.40;99.90;;;;;;5030642;28;20075;-61
2022/03/21 05:08:32;;;;;;;42.92;20.63;;;6.20;99.90;;;;;;5031078;28;20432;-57
2022/03/21 05:10:57;;;;;;;43.67;20.17;;;6.10;99.90;;;;;;5027425;28;20124;-57
2022/03/21 05:13:23;;;;;;;41.72;19.90;;;6.00;99.90;;;;;;5030525;28;20017;-61
2022/03/21 05:15:49;;;;;;;43.78;22.50;;;5.80;99.90;;;;;;5030653;28;20025;-60
2022/03/21 05:18:16;;;;;;;48.97;22.10;;;5.70;99.90;;;;;;5031645;28;20013;-60
2022/03/21 05:20:43;;;;;;;45.65;21.85;;;5.60;99.90;;;;;;5031208;28;20032;-57
2022/03/21 05:31:20;;;;;;;42.40;20.67;;;5.50;99.90;;;;;;5029445;28;20052;-60
2022/03/21 05:36:30;;;;;;;47.00;21.83;;;5.60;99.90;;;;;;5031449;28;20052;-63
2022/03/21 05:38:57;;;;;;;47.75;22.05;;;5.60;99.90;;;;;;5029353;28;20033;-59
2022/03/21 05:41:22;;;;;;;48.38;21.75;;;5.50;99.90;;;;;;5029533;28;20115;-60
2022/03/21 05:43:49;;;;;;;50.15;21.58;;;5.50;99.90;;;;;;5029440;28;20144;-56
2022/03/21 05:46:15;;;;;;;41.85;20.33;;;5.60;99.90;;;;;;5030689;28;20021;-58
2022/03/21 05:51:36;;;;;;;43.38;20.13;;;5.60;99.90;;;;;;5032198;28;20091;-58
2022/03/21 05:54:13;;;;;;;41.38;20.50;;;5.50;99.90;;;;;;5029446;28;20036;-57
2022/03/21 05:56:40;;;;;;;43.88;20.05;;;5.40;99.90;;;;;;5028307;28;20487;-57
2022/03/21 06:01:52;;;;;;;44.92;20.50;;;5.30;99.90;;;;;;5029352;28;20556;-60
2022/03/21 06:04:18;;;;;;;44.08;19.90;;;5.30;99.90;;;;;;5010242;28;20041;-56
2022/03/21 06:06:44;;;;;;;45.17;21.58;;;5.30;99.90;;;;;;5026584;28;20121;-61
2022/03/21 06:09:11;;;;;;;45.53;20.35;;;5.30;99.90;;;;;;5029197;28;20464;-61
2022/03/21 06:11:37;;;;;;;49.58;22.27;;;5.30;99.90;;;;;;5024521;28;20135;-61
2022/03/21 06:14:04;;;;;;;49.75;22.13;;;5.40;99.90;;;;;;5025276;28;20029;-61
2022/03/21 06:16:30;;;;;;;42.00;21.75;;;5.40;99.90;;;;;;5030338;28;20025;-61
2022/03/21 06:18:59;;;;;;;44.38;21.25;;;5.50;99.90;;;;;;5030688;28;20017;-61
2022/03/21 06:21:25;;;;;;;47.28;21.02;;;5.50;99.90;;;;;;5030014;28;20025;-62
2022/03/21 06:23:51;;;;;;;48.10;21.98;;;5.60;99.90;;;;;;5029820;28;20033;-61
2022/03/21 06:26:17;;;;;;;48.80;22.98;;;5.60;99.90;;;;;;5029628;28;20029;-61
2022/03/21 06:28:43;;;;;;;43.65;22.05;;;5.60;99.90;;;;;;5030478;28;20033;-60
2022/03/21 06:31:08;;;;;;;52.08;23.58;;;5.70;99.90;;;;;;5030387;28;20048;-61
2022/03/21 06:33:34;;;;;;;54.42;23.80;;;5.70;99.90;;;;;;5027276;28;20041;-61
2022/03/21 06:36:01;;;;;;;54.80;25.45;;;5.80;99.90;;;;;;5029728;28;20026;-61
2022/03/21 06:38:27;;;;;;;52.28;23.73;;;5.90;99.90;;;;;;5027477;28;20042;-62
2022/03/21 06:40:52;;;;;;;45.67;23.13;;;6.00;99.90;;;;;;5027641;28;20021;-62
2022/03/21 06:43:20;;;;;;;51.53;24.42;;;6.00;99.90;;;;;;5030454;28;20424;-59
2022/03/21 06:45:54;;;;;;;43.67;23.17;;;6.10;99.90;;;;;;5029876;28;20033;-61
2022/03/21 06:48:20;;;;;;;46.13;23.60;;;6.20;99.90;;;;;;5029018;28;20040;-62
2022/03/21 06:50:46;;;;;;;43.65;22.75;;;6.40;99.90;;;;;;5027620;28;20079;-61
2022/03/21 06:53:13;;;;;;;38.88;21.05;;;6.60;99.90;;;;;;5027967;28;20036;-61
2022/03/21 06:55:38;;;;;;;40.90;20.30;;;6.70;99.90;;;;;;5029289;28;20095;-61
2022/03/21 06:58:06;;;;;;;43.28;20.55;;;6.90;99.90;;;;;;5029059;28;20483;-61
2022/03/21 07:00:32;;;;;;;36.97;20.30;;;7.00;99.90;;;;;;5029163;28;20025;-62
2022/03/21 07:02:57;;;;;;;38.28;18.52;;;7.20;99.90;;;;;;5023675;28;20112;-62
2022/03/21 07:05:25;;;;;;;39.55;18.90;;;7.40;99.90;;;;;;5035590;28;20021;-60
2022/03/21 07:07:52;;;;;;;42.80;18.85;;;7.50;99.90;;;;;;5032396;28;20491;-62
2022/03/21 07:10:17;;;;;;;32.78;17.98;;;7.60;99.90;;;;;;5021118;28;20036;-62
2022/03/21 07:12:43;;;;;;;37.60;18.55;;;7.70;99.90;;;;;;5019092;28;20022;-62
2022/03/21 07:15:09;;;;;;;33.85;18.02;;;7.80;99.90;;;;;;5027131;28;20037;-62
2022/03/21 07:17:34;;;;;;;32.65;18.45;;;7.90;99.90;;;;;;5028094;28;20032;-60
2022/03/21 07:20:00;;;;;;;36.13;19.30;;;8.00;99.90;;;;;;5030574;28;20514;-61
2022/03/21 07:22:25;;;;;;;41.85;18.88;;;8.10;99.90;;;;;;5027298;28;20068;-62
2022/03/21 07:24:51;;;;;;;34.67;18.25;;;8.20;99.90;;;;;;5029224;28;20025;-62
2022/03/21 07:27:17;;;;;;;38.75;18.67;;;8.20;99.90;;;;;;5026493;28;20635;-60
2022/03/21 07:29:42;;;;;;;30.73;17.83;;;8.30;99.90;;;;;;5027759;28;20033;-62
2022/03/21 07:32:08;;;;;;;33.10;18.65;;;8.40;99.90;;;;;;5027791;28;20407;-62
2022/03/21 07:34:34;;;;;;;39.95;18.77;;;8.40;99.90;;;;;;5028325;28;20071;-62
2022/03/21 07:36:59;;;;;;;31.92;17.40;;;8.50;99.90;;;;;;5028935;28;20411;-61
2022/03/21 07:39:25;;;;;;;35.17;17.92;;;8.60;99.90;;;;;;5027675;28;20223;-62
2022/03/21 07:41:59;;;;;;;34.10;18.83;;;8.70;99.90;;;;;;5020266;28;20112;-63
2022/03/21 07:47:20;;;;;;;39.08;18.83;;;8.90;99.90;;;;;;5031644;28;20459;-63
2022/03/21 07:49:52;;;;;;;32.08;17.55;;;9.00;99.90;;;;;;5029251;28;20021;-61
2022/03/21 07:52:20;;;;;;;39.13;19.48;;;9.10;99.90;;;;;;5028803;28;20039;-60
2022/03/21 07:54:51;;;;;;;34.47;18.45;;;9.20;99.90;;;;;;5028859;28;20025;-63
2022/03/21 07:57:17;;;;;;;39.50;18.95;;;9.20;99.90;;;;;;5025492;28;20876;-62
2022/03/21 07:59:42;;;;;;;35.13;19.15;;;9.30;99.90;;;;;;5034854;28;20034;-63
2022/03/21 08:02:08;;;;;;;35.50;19.13;;;9.40;99.90;;;;;;5026436;28;20029;-62
2022/03/21 08:04:34;;;;;;;32.50;18.20;;;9.50;99.90;;;;;;5022978;28;20025;-62
2022/03/21 08:06:59;;;;;;;35.70;18.55;;;9.60;99.90;;;;;;5022600;28;20654;-62
2022/03/21 08:12:02;;;;;;;32.45;18.88;;;9.80;99.90;;;;;;5041617;22;20081;-65
2022/03/21 08:14:28;;;;;;;32.85;18.67;;;9.80;99.90;;;;;;5002587;28;20252;-65
2022/03/21 08:16:53;;;;;;;40.78;18.05;;;9.90;99.90;;;;;;4989348;28;20395;-64
2022/03/21 08:19:19;;;;;;;34.08;18.55;;;10.00;99.90;;;;;;4993087;28;20050;-66
2022/03/21 08:21:45;;;;;;;34.97;18.70;;;10.10;99.90;;;;;;4993488;28;20033;-66
2022/03/21 08:24:13;;;;;;;37.88;18.52;;;10.20;99.90;;;;;;5011553;28;20547;-65
2022/03/21 08:26:40;;;;;;;34.47;18.75;;;10.30;99.90;;;;;;5011129;28;20489;-64
2022/03/21 08:29:06;;;;;;;35.50;19.60;;;10.40;99.90;;;;;;5011538;28;20496;-65
2022/03/21 08:31:32;;;;;;;37.35;19.65;;;10.50;99.90;;;;;;5010911;28;20030;-66
2022/03/21 08:33:57;;;;;;;42.20;20.17;;;10.50;99.90;;;;;;5010599;28;20033;-65
2022/03/21 08:36:23;;;;;;;38.40;19.95;;;10.60;99.90;;;;;;5013778;28;20026;-64
2022/03/21 08:38:49;;;;;;;36.40;19.08;;;10.70;99.90;;;;;;5011123;28;20021;-65
2022/03/21 08:41:16;;;;;;;34.00;18.45;;;10.70;99.90;;;;;;5011308;28;20057;-65
2022/03/21 08:43:42;;;;;;;50.78;19.83;;;10.80;99.90;;;;;;5014360;28;20635;-65
2022/03/21 08:46:07;;;;;;;35.38;18.10;;;10.90;99.90;;;;;;5016999;28;20060;-65
2022/03/21 08:51:19;;;;;;;35.78;19.02;;;11.10;99.90;;;;;;5017487;28;20099;-65
2022/03/21 08:53:44;;;;;;;40.00;19.02;;;11.20;99.90;;;;;;5011981;28;20025;-65
2022/03/21 08:56:10;;;;;;;39.85;19.15;;;11.30;99.90;;;;;;5012238;28;20029;-66
2022/03/21 08:58:36;;;;;;;36.17;19.75;;;11.40;99.90;;;;;;5000042;28;20025;-66
2022/03/21 09:01:01;;;;;;;36.08;19.23;;;11.50;99.90;;;;;;5015779;28;20030;-66
2022/03/21 09:03:27;;;;;;;35.25;18.33;;;11.60;99.90;;;;;;5010580;28;20018;-67
2022/03/21 09:05:52;;;;;;;37.78;19.38;;;11.70;99.90;;;;;;5013238;28;20518;-66
2022/03/21 09:08:18;;;;;;;38.47;18.98;;;11.90;99.90;;;;;;5010801;28;20472;-67
2022/03/21 09:10:44;;;;;;;38.53;19.10;;;12.00;99.90;;;;;;5010964;28;20030;-66
2022/03/21 09:13:09;;;;;;;31.73;18.88;;;12.10;99.90;;;;;;5011936;28;20053;-64
2022/03/21 09:15:35;;;;;;;40.28;19.13;;;12.20;99.90;;;;;;5010254;28;20472;-65
2022/03/21 09:18:02;;;;;;;40.38;20.42;;;12.30;99.90;;;;;;5010869;28;20095;-66
2022/03/21 09:20:28;;;;;;;35.95;20.08;;;12.40;99.90;;;;;;5011209;28;20499;-66
2022/03/21 09:22:54;;;;;;;36.58;19.40;;;12.50;99.90;;;;;;5011292;28;20145;-66
2022/03/21 09:25:19;;;;;;;31.48;18.73;;;12.60;99.90;;;;;;5010765;28;20476;-64
2022/03/21 09:27:45;;;;;;;35.15;19.58;;;12.80;99.90;;;;;;5011570;28;20040;-65
2022/03/21 09:30:12;;;;;;;35.38;19.05;;;12.80;99.90;;;;;;5015892;28;20026;-67
2022/03/21 09:32:37;;;;;;;35.10;18.88;;;13.00;99.90;;;;;;5012382;28;20064;-67
2022/03/21 09:35:05;;;;;;;39.92;19.73;;;13.00;99.90;;;;;;4993141;28;20061;-67
2022/03/21 09:37:32;;;;;;;33.83;19.50;;;13.10;99.90;;;;;;5011576;28;20451;-65
2022/03/21 09:39:58;;;;;;;33.10;19.45;;;13.20;99.90;;;;;;4994022;28;20491;-67
2022/03/21 09:42:24;;;;;;;36.25;19.45;;;13.30;99.90;;;;;;5011843;28;20477;-66
2022/03/21 09:44:52;;;;;;;34.30;20.17;;;13.40;99.90;;;;;;5011146;28;20041;-66
2022/03/21 09:50:09;;;;;;;34.30;19.92;;;13.50;99.90;;;;;;5010610;28;20032;-66
2022/03/21 09:52:35;;;;;;;38.22;19.40;;;13.80;99.90;;;;;;5010970;28;20034;-66
2022/03/21 09:55:02;;;;;;;46.22;21.13;;;13.90;99.90;;;;;;5009906;28;20033;-66
2022/03/21 09:57:28;;;;;;;45.03;20.25;;;14.00;99.90;;;;;;5010333;28;20086;-65
2022/03/21 09:59:57;;;;;;;37.75;20.45;;;14.20;99.90;;;;;;5010877;28;20057;-65
2022/03/21 10:02:22;;;;;;;36.03;19.67;;;14.30;99.90;;;;;;5010546;28;20507;-67
2022/03/21 10:04:48;;;;;;;33.92;19.35;;;14.50;99.90;;;;;;5012995;28;20030;-64
2022/03/21 10:07:16;;;;;;;37.53;21.30;;;14.60;99.90;;;;;;5015936;28;20030;-65
2022/03/21 10:09:42;;;;;;;38.67;20.52;;;14.70;99.90;;;;;;5012116;28;20404;-64
2022/03/21 10:12:11;;;;;;;33.40;19.95;;;14.80;99.90;;;;;;5012500;28;20038;-64
2022/03/21 10:14:38;;;;;;;34.42;19.92;;;15.10;99.90;;;;;;5010952;28;20021;-65
2022/03/21 10:17:15;;;;;;;33.28;20.38;;;15.20;99.90;;;;;;5007797;28;20044;-64
2022/03/21 10:19:49;;;;;;;37.08;20.00;;;15.30;99.90;;;;;;5011120;28;20036;-65
2022/03/21 10:22:34;;;;;;;40.65;20.23;;;15.40;99.90;;;;;;5011742;28;20077;-66
2022/03/21 10:25:05;;;;;;;36.90;20.17;;;15.40;99.90;;;;;;5011073;28;20496;-66
2022/03/21 10:27:36;;;;;;;61.03;28.95;;;15.60;99.90;;;;;;5008671;28;20029;-67
2022/03/21 10:30:10;;;;;;;34.72;19.73;;;15.80;99.90;;;;;;5006417;28;20121;-64
2022/03/21 10:32:39;;;;;;;;;;;15.90;99.90;;;;;;5007357;28;20084;-64
2022/03/21 10:35:13;;;;;;;41.10;19.73;;;16.10;99.90;;;;;;5011859;28;19913;-65
2022/03/21 10:37:53;;;;;;;38.17;20.83;;;16.20;99.90;;;;;;5014128;28;20032;-65
2022/03/21 10:40:25;;;;;;;39.97;19.70;;;16.40;99.90;;;;;;5007432;28;20084;-65
2022/03/21 10:42:55;;;;;;;34.83;20.92;;;16.40;99.90;;;;;;5008811;28;20026;-65
2022/03/21 10:45:25;;;;;;;33.85;20.73;;;16.30;99.90;;;;;;5011316;28;20029;-66
2022/03/21 10:47:52;;;;;;;36.17;20.13;;;16.50;99.90;;;;;;5011093;28;20018;-65
2022/03/21 10:50:33;;;;;;;35.13;18.42;;;16.50;99.90;;;;;;5010220;28;20034;-65
2022/03/21 10:53:16;;;;;;;38.20;20.15;;;16.70;99.90;;;;;;5011966;28;20040;-66
2022/03/21 10:55:47;;;;;;;33.00;19.58;;;16.80;99.90;;;;;;5013058;28;20029;-64
2022/03/21 10:58:14;;;;;;;34.38;19.20;;;17.00;99.90;;;;;;5011664;28;20029;-66
2022/03/21 11:00:40;;;;;;;36.60;19.92;;;17.00;99.90;;;;;;5008127;28;20111;-66
2022/03/21 11:03:14;;;;;;;41.35;19.98;;;17.10;99.90;;;;;;5000218;28;20033;-68
2022/03/21 11:05:42;;;;;;;32.67;18.65;;;17.10;99.90;;;;;;5006745;28;20100;-65
2022/03/21 11:08:10;;;;;;;32.63;19.10;;;17.30;99.90;;;;;;5006430;28;20057;-66
2022/03/21 11:10:36;;;;;;;30.60;17.48;;;17.40;99.90;;;;;;5005945;28;20489;-65
2022/03/21 11:13:04;;;;;;;28.90;17.67;;;17.40;99.90;;;;;;5008059;28;20026;-65
2022/03/21 11:15:31;;;;;;;31.33;18.27;;;17.40;99.90;;;;;;5006789;28;20104;-67
2022/03/21 11:17:57;;;;;;;31.15;18.70;;;17.50;99.90;;;;;;5004355;28;20026;-67
2022/03/21 11:20:24;;;;;;;38.78;20.15;;;17.60;99.90;;;;;;5005801;28;20033;-61
2022/03/21 11:22:52;;;;;;;30.13;17.73;;;17.80;99.90;;;;;;5006410;28;20766;-63
2022/03/21 11:25:18;;;;;;;36.45;20.95;;;17.80;99.90;;;;;;5006007;28;20140;-61
2022/03/21 11:28:05;;;;;;;38.03;20.42;;;17.90;99.90;;;;;;5006678;28;20625;-61
2022/03/21 11:30:50;;;;;;;33.03;18.67;;;18.00;99.90;;;;;;5013713;28;20123;-62
2022/03/21 11:33:33;;;;;;;38.05;20.70;;;18.30;99.90;;;;;;5005455;28;20029;-63
2022/03/21 11:36:05;;;;;;;39.15;19.17;;;18.40;99.90;;;;;;5005509;28;20057;-61
2022/03/21 11:38:36;;;;;;;30.25;17.95;;;18.40;99.90;;;;;;5006564;28;20010;-62
2022/03/21 11:41:18;;;;;;;32.45;18.35;;;18.60;99.90;;;;;;5002404;28;20483;-63
2022/03/21 11:43:46;;;;;;;33.28;18.83;;;18.70;99.90;;;;;;5005625;28;20037;-61
2022/03/21 11:46:29;;;;;;;30.88;17.88;;;18.70;99.90;;;;;;5004501;28;20033;-61
2022/03/21 11:48:56;;;;;;;37.70;18.60;;;18.80;99.90;;;;;;5000485;28;20036;-62
2022/03/21 11:51:23;;;;;;;28.08;18.70;;;18.90;99.90;;;;;;5002461;28;20032;-62
2022/03/21 11:53:51;;;;;;;30.52;17.40;;;18.90;99.90;;;;;;5005491;28;20042;-63
2022/03/21 11:56:37;;;;;;;30.17;18.02;;;19.10;99.90;;;;;;5003833;28;20033;-64
2022/03/21 11:59:03;;;;;;;28.58;16.42;;;19.30;99.90;;;;;;5005949;28;20126;-60
2022/03/21 12:01:30;;;;;;;27.67;17.50;;;19.30;99.90;;;;;;5003708;28;20106;-61
2022/03/21 12:04:16;;;;;;;28.77;16.50;;;19.30;99.90;;;;;;5007000;28;20026;-62
2022/03/21 12:06:42;;;;;;;26.67;15.93;;;19.60;99.90;;;;;;5001533;28;20565;-63
2022/03/21 12:09:13;;;;;;;28.75;16.02;;;19.70;99.90;;;;;;5005950;28;20092;-60
2022/03/21 12:11:39;;;;;;;23.77;12.68;;;19.70;99.90;;;;;;5002110;28;20026;-62
2022/03/21 12:14:40;;;;;;;24.13;13.55;;;20.00;99.90;;;;;;5005575;28;20026;-63
2022/03/21 12:17:12;;;;;;;20.98;12.23;;;20.00;99.90;;;;;;5005325;28;20034;-61
2022/03/21 12:19:58;;;;;;;21.95;11.88;;;20.10;99.90;;;;;;5009978;28;20036;-62
2022/03/21 12:22:29;;;;;;;20.65;12.68;;;20.20;99.90;;;;;;5011999;28;20038;-63
2022/03/21 12:24:55;;;;;;;23.90;12.25;;;20.10;99.90;;;;;;5004771;28;20018;-62
2022/03/21 12:27:39;;;;;;;20.65;12.75;;;20.10;99.90;;;;;;5006286;28;20061;-61
2022/03/21 12:30:23;;;;;;;26.85;13.35;;;20.40;99.90;;;;;;4999082;28;20088;-63
2022/03/21 12:33:14;;;;;;;24.30;12.77;;;20.20;99.90;;;;;;5002329;28;20104;-59
2022/03/21 12:35:45;;;;;;;20.67;12.38;;;20.30;99.90;;;;;;5003717;28;20092;-62
2022/03/21 12:38:22;;;;;;;20.00;12.77;;;20.40;99.90;;;;;;5005759;28;20026;-61
2022/03/21 12:40:51;;;;;;;18.95;11.88;;;20.00;99.90;;;;;;5002576;28;20713;-62
2022/03/21 12:43:22;;;;;;;19.98;11.15;;;20.10;99.90;;;;;;5004819;28;20202;-60
2022/03/21 12:45:49;;;;;;;18.40;11.73;;;20.50;99.90;;;;;;5003328;28;20026;-63
2022/03/21 12:48:17;;;;;;;19.27;10.68;;;20.30;99.90;;;;;;5003910;28;20026;-62
2022/03/21 12:50:47;;;;;;;20.45;11.07;;;20.40;99.90;;;;;;5003782;28;20514;-63
2022/03/21 12:53:19;;;;;;;18.92;10.27;;;20.50;99.90;;;;;;4998308;28;20034;-64
2022/03/21 12:56:01;;;;;;;18.65;9.73;;;20.90;99.90;;;;;;5008135;28;20030;-63
2022/03/21 12:58:27;;;;;;;18.58;10.15;;;21.00;99.90;;;;;;5007720;28;20105;-62
2022/03/21 13:00:55;;;;;;;23.13;11.05;;;20.80;99.90;;;;;;5010069;28;20038;-62
2022/03/21 13:03:23;;;;;;;22.17;10.55;;;20.90;99.60;;;;;;5006214;28;20506;-62
2022/03/21 13:11:58;;;;;;;15.70;10.73;;;21.00;99.90;;;;;;5009174;28;20036;-62
2022/03/21 13:14:24;;;;;;;18.55;11.25;;;21.10;99.90;;;;;;5005741;28;20044;-62
2022/03/21 13:16:59;;;;;;;16.08;10.45;;;20.90;99.90;;;;;;5010458;28;20025;-62